createdAt,value
2022-11-09T00:01:02.307Z,81.73
2022-11-09T00:03:31.258Z,81.66
2022-11-09T00:06:00.191Z,81.32
2022-11-09T00:08:28.565Z,81.26
2022-11-09T00:10:56.749Z,81.69
2022-11-09T00:13:24.296Z,81.39
2022-11-09T00:15:51.900Z,81.34
2022-11-09T00:18:20.211Z,81.13
2022-11-09T00:20:49.137Z,81.36
2022-11-09T00:23:18.417Z,81.03
2022-11-09T00:25:47.392Z,80.81
2022-11-09T00:28:15.375Z,80.95
2022-11-09T00:30:43.176Z,81.25
2022-11-09T00:33:12.093Z,80.99
2022-11-09T00:35:40.312Z,80.76
2022-11-09T00:38:09.321Z,81.14
2022-11-09T00:40:39.228Z,80.93
2022-11-09T00:43:06.810Z,80.60
2022-11-09T00:45:34.342Z,80.96
2022-11-09T00:48:05.097Z,80.81
2022-11-09T00:50:32.628Z,80.51
2022-11-09T00:53:00.332Z,80.83
2022-11-09T00:55:29.243Z,80.58
2022-11-09T00:57:57.524Z,80.60
2022-11-09T01:00:25.647Z,80.66
2022-11-09T01:02:54.477Z,80.50
2022-11-09T01:05:22.095Z,80.53
2022-11-09T01:07:50.709Z,80.81
2022-11-09T01:10:19.137Z,80.68
2022-11-09T01:12:50.051Z,80.36
2022-11-09T01:15:19.815Z,80.66
2022-11-09T01:17:47.657Z,80.59
2022-11-09T01:20:18.666Z,80.41
2022-11-09T01:22:47.208Z,80.89
2022-11-09T01:25:15.385Z,80.71
2022-11-09T01:27:43.224Z,80.52
2022-11-09T01:30:13.627Z,80.72
2022-11-09T01:32:41.345Z,81.00
2022-11-09T01:35:09.743Z,81.07
2022-11-09T01:37:40.151Z,81.23
2022-11-09T01:40:12.811Z,81.53
2022-11-09T01:42:41.579Z,81.58
2022-11-09T01:45:31.197Z,81.67
2022-11-09T01:48:04.549Z,81.59
2022-11-09T01:50:43.135Z,81.36
2022-11-09T01:53:42.686Z,81.91
2022-11-09T01:56:13.979Z,82.20
2022-11-09T01:58:48.615Z,82.43
2022-11-09T02:01:20.319Z,82.43
2022-11-09T02:03:55.451Z,82.13
2022-11-09T02:06:28.195Z,82.11
2022-11-09T02:09:02.180Z,82.23
2022-11-09T02:11:32.136Z,82.51
2022-11-09T02:14:01.903Z,82.71
2022-11-09T02:16:31.285Z,82.64
2022-11-09T02:19:01.237Z,83.01
2022-11-09T02:21:34.267Z,83.12
2022-11-09T02:24:02.200Z,82.74
2022-11-09T02:26:34.377Z,83.02
2022-11-09T02:29:08.207Z,83.36
2022-11-09T02:31:40.204Z,83.42
2022-11-09T02:34:11.144Z,83.38
2022-11-09T02:36:40.250Z,83.33
2022-11-09T02:39:16.240Z,83.45
2022-11-09T02:41:49.252Z,83.92
2022-11-09T02:44:21.123Z,84.04
2022-11-09T02:46:48.793Z,84.23
2022-11-09T02:49:16.918Z,84.21
2022-11-09T02:51:45.833Z,84.00
2022-11-09T02:54:17.155Z,84.25
2022-11-09T02:56:46.580Z,84.53
2022-11-09T02:59:14.583Z,84.66
2022-11-09T03:01:43.280Z,84.53
2022-11-09T03:04:12.491Z,84.17
2022-11-09T03:06:40.102Z,84.44
2022-11-09T03:09:16.508Z,84.64
2022-11-09T03:11:46.229Z,85.09
2022-11-09T03:14:19.497Z,84.73
2022-11-09T03:16:51.302Z,85.25
2022-11-09T03:19:20.017Z,84.83
2022-11-09T03:21:51.261Z,84.99
2022-11-09T03:24:24.891Z,85.45
2022-11-09T03:26:57.227Z,85.08
2022-11-09T03:29:27.236Z,85.55
2022-11-09T03:31:56.280Z,85.57
2022-11-09T03:34:24.618Z,85.00
2022-11-09T03:36:55.118Z,85.49
2022-11-09T03:39:25.253Z,85.67
2022-11-09T03:41:54.178Z,85.44
2022-11-09T03:47:14.716Z,85.42
2022-11-09T03:49:42.321Z,85.27
2022-11-09T03:52:10.655Z,85.63
2022-11-09T03:54:40.325Z,85.47
2022-11-09T03:57:09.214Z,85.71
2022-11-09T03:59:37.430Z,85.68
2022-11-09T04:02:05.240Z,85.56
2022-11-09T04:04:34.539Z,85.83
2022-11-09T04:07:02.254Z,85.76
2022-11-09T04:09:31.227Z,85.64
2022-11-09T04:12:00.976Z,85.31
2022-11-09T04:14:28.615Z,85.78
2022-11-09T04:16:56.211Z,85.49
2022-11-09T04:19:24.225Z,85.30
2022-11-09T04:21:52.144Z,85.70
2022-11-09T04:24:19.810Z,85.46
2022-11-09T04:26:48.244Z,85.10
2022-11-09T04:29:18.050Z,85.01
2022-11-09T04:31:49.200Z,84.78
2022-11-09T04:34:17.259Z,84.16
2022-11-09T04:36:46.074Z,84.01
2022-11-09T04:39:13.833Z,83.99
2022-11-09T04:41:41.566Z,84.05
2022-11-09T04:44:09.493Z,83.88
2022-11-09T04:46:40.856Z,83.70
2022-11-09T04:49:08.850Z,84.25
2022-11-09T04:51:36.421Z,83.73
2022-11-09T04:54:04.126Z,84.25
2022-11-09T04:56:32.603Z,83.75
2022-11-09T04:59:00.626Z,84.36
2022-11-09T05:01:28.279Z,84.11
2022-11-09T05:03:58.005Z,84.16
2022-11-09T05:06:35.213Z,84.54
2022-11-09T05:09:05.783Z,84.46
2022-11-09T05:11:34.178Z,84.27
2022-11-09T05:14:02.210Z,84.54
2022-11-09T05:16:31.996Z,84.49
2022-11-09T05:19:00.939Z,84.39
2022-11-09T05:21:28.551Z,85.02
2022-11-09T05:24:00.151Z,84.87
2022-11-09T05:26:29.521Z,84.81
2022-11-09T05:28:58.944Z,85.28
2022-11-09T05:31:28.093Z,85.64
2022-11-09T05:33:57.210Z,85.36
2022-11-09T05:36:27.763Z,85.58
2022-11-09T05:38:57.150Z,85.24
2022-11-09T05:41:26.228Z,85.55
2022-11-09T05:43:54.812Z,85.46
2022-11-09T05:46:22.517Z,85.44
2022-11-09T05:48:50.545Z,85.86
2022-11-09T05:51:18.166Z,86.03
2022-11-09T05:53:48.023Z,86.02
2022-11-09T05:56:16.212Z,86.30
2022-11-09T05:58:44.283Z,86.57
2022-11-09T06:01:37.757Z,87.27
2022-11-09T06:04:06.274Z,87.59
2022-11-09T06:06:33.960Z,88.93
2022-11-09T06:09:02.933Z,91.45
2022-11-09T06:11:30.664Z,93.40
2022-11-09T06:13:58.213Z,94.85
2022-11-09T06:16:28.169Z,94.56
2022-11-09T06:18:58.562Z,94.72
2022-11-09T06:21:29.562Z,95.44
2022-11-09T06:23:57.662Z,96.37
2022-11-09T06:26:27.180Z,96.89
2022-11-09T06:28:56.181Z,97.71
2022-11-09T06:31:23.856Z,98.35
2022-11-09T06:33:53.174Z,98.53
2022-11-09T06:36:21.111Z,98.59
2022-11-09T06:38:49.832Z,98.78
2022-11-09T06:41:17.945Z,98.86
2022-11-09T06:43:46.903Z,98.57
2022-11-09T06:46:17.256Z,98.89
2022-11-09T06:48:44.962Z,98.96
2022-11-09T06:51:13.214Z,99.57
2022-11-09T06:53:41.395Z,99.49
2022-11-09T06:56:10.262Z,99.39
2022-11-09T06:58:41.161Z,99.59
2022-11-09T07:01:14.343Z,99.70
2022-11-09T07:03:42.002Z,99.58
2022-11-09T07:06:11.776Z,99.54
2022-11-09T07:08:39.775Z,99.75
2022-11-09T07:11:09.169Z,99.83
2022-11-09T07:13:36.799Z,100.00
2022-11-09T07:16:04.869Z,100.00
2022-11-09T07:18:34.396Z,100.00
2022-11-09T07:21:07.726Z,100.00
2022-11-09T07:23:39.172Z,99.70
2022-11-09T07:26:06.905Z,99.13
2022-11-09T07:28:35.160Z,98.83
2022-11-09T07:31:03.076Z,98.67
2022-11-09T07:33:33.354Z,99.01
2022-11-09T07:36:05.038Z,98.90
2022-11-09T07:38:36.558Z,98.86
2022-11-09T07:41:07.235Z,99.04
2022-11-09T07:43:35.544Z,98.85
2022-11-09T07:48:57.331Z,98.79
2022-11-09T07:51:28.181Z,99.13
2022-11-09T07:53:55.736Z,99.20
2022-11-09T07:56:23.294Z,99.32
2022-11-09T07:58:51.601Z,99.40
2022-11-09T08:01:19.219Z,99.57
2022-11-09T08:03:47.626Z,99.40
2022-11-09T08:06:18.383Z,99.82
2022-11-09T08:08:49.409Z,99.90
2022-11-09T08:11:18.561Z,100.00
2022-11-09T08:13:46.354Z,100.00
2022-11-09T08:16:15.175Z,100.00
2022-11-09T08:18:43.246Z,100.00
2022-11-09T08:21:10.901Z,100.00
2022-11-09T08:23:42.239Z,100.00
2022-11-09T08:26:14.173Z,100.00
2022-11-09T08:28:41.715Z,100.00
2022-11-09T08:31:09.759Z,100.00
2022-11-09T08:33:41.188Z,100.00
2022-11-09T08:36:13.053Z,100.00
2022-11-09T08:38:41.280Z,100.00
2022-11-09T08:41:13.380Z,100.00
2022-11-09T08:43:45.375Z,100.00
2022-11-09T08:46:12.952Z,100.00
2022-11-09T08:48:40.649Z,100.00
2022-11-09T08:51:08.416Z,100.00
2022-11-09T08:53:39.672Z,100.00
2022-11-09T08:56:09.654Z,100.00
2022-11-09T08:58:37.771Z,100.00
2022-11-09T09:01:15.341Z,100.00
2022-11-09T09:03:45.460Z,100.00
2022-11-09T09:06:13.164Z,100.00
2022-11-09T09:08:42.144Z,100.00
2022-11-09T09:11:10.365Z,100.00
2022-11-09T09:13:43.357Z,100.00
2022-11-09T09:16:15.260Z,100.00
2022-11-09T09:18:43.243Z,99.95
2022-11-09T09:21:11.804Z,99.38
2022-11-09T09:23:39.548Z,98.92
2022-11-09T09:26:09.179Z,98.50
2022-11-09T09:28:37.301Z,98.41
2022-11-09T09:31:05.870Z,97.69
2022-11-09T09:33:34.887Z,97.46
2022-11-09T09:36:03.792Z,96.82
2022-11-09T09:38:35.177Z,95.69
2022-11-09T09:41:05.047Z,95.64
2022-11-09T09:43:42.551Z,95.25
2022-11-09T09:46:18.778Z,95.09
2022-11-09T09:48:51.602Z,94.58
2022-11-09T09:51:26.227Z,94.33
2022-11-09T09:54:04.473Z,93.70
2022-11-09T09:56:35.424Z,93.79
2022-11-09T09:59:16.042Z,93.95
2022-11-09T10:01:45.767Z,93.55
2022-11-09T10:04:20.221Z,93.23
2022-11-09T10:07:04.438Z,92.84
2022-11-09T10:09:51.192Z,91.92
2022-11-09T10:12:25.691Z,90.63
2022-11-09T10:15:10.249Z,89.61
2022-11-09T10:17:45.514Z,88.41
2022-11-09T10:20:39.649Z,88.19
2022-11-09T10:23:23.749Z,88.01
2022-11-09T10:26:06.883Z,87.43
2022-11-09T10:29:09.662Z,86.18
2022-11-09T10:31:33.632Z,84.38
2022-11-09T10:34:09.131Z,82.36
2022-11-09T10:36:45.343Z,81.87
2022-11-09T10:39:16.087Z,82.18
2022-11-09T10:42:02.224Z,82.15
2022-11-09T10:44:49.172Z,81.00
2022-11-09T10:47:49.088Z,80.91
2022-11-09T10:50:38.432Z,79.79
2022-11-09T10:53:28.582Z,80.14
2022-11-09T10:56:21.142Z,78.65
2022-11-09T10:59:40.808Z,78.55
2022-11-09T11:02:45.145Z,75.83
2022-11-09T11:05:35.082Z,76.87
2022-11-09T11:08:27.299Z,76.36
2022-11-09T11:11:38.043Z,75.47
2022-11-09T11:14:31.272Z,75.44
2022-11-09T11:17:26.435Z,75.98
2022-11-09T11:20:29.522Z,75.61
2022-11-09T11:23:18.470Z,72.83
2022-11-09T11:26:30.258Z,73.27
2022-11-09T11:29:31.790Z,71.34
2022-11-09T11:32:21.516Z,71.13
2022-11-09T11:35:15.301Z,71.08
2022-11-09T11:38:16.653Z,69.72
2022-11-09T11:41:20.210Z,69.75
2022-11-09T11:44:17.223Z,69.25
2022-11-09T11:47:16.677Z,68.64
2022-11-09T11:50:24.556Z,69.26
2022-11-09T11:53:43.060Z,68.57
2022-11-09T11:56:34.384Z,69.29
2022-11-09T11:59:56.203Z,68.33
2022-11-09T12:03:10.806Z,68.68
2022-11-09T12:06:21.713Z,69.65
2022-11-09T12:09:31.287Z,69.65
2022-11-09T12:12:27.043Z,68.88
2022-11-09T12:15:27.289Z,68.10
2022-11-09T12:18:28.299Z,66.32
2022-11-09T12:21:18.070Z,67.36
2022-11-09T12:24:18.780Z,67.73
2022-11-09T12:27:32.214Z,67.51
2022-11-09T12:30:21.896Z,67.63
2022-11-09T12:33:13.008Z,66.67
2022-11-09T12:36:05.062Z,66.78
2022-11-09T12:39:01.285Z,66.97
2022-11-09T12:41:51.232Z,68.40
2022-11-09T12:44:44.473Z,68.28
2022-11-09T12:47:40.197Z,69.05
2022-11-09T12:50:29.113Z,69.29
2022-11-09T12:53:17.556Z,69.39
2022-11-09T12:56:09.026Z,67.91
2022-11-09T12:59:20.630Z,67.07
2022-11-09T13:02:25.281Z,66.94
2022-11-09T13:05:30.800Z,66.57
2022-11-09T13:08:26.062Z,65.11
2022-11-09T13:11:20.983Z,64.25
2022-11-09T13:14:37.221Z,65.43
2022-11-09T13:18:02.755Z,65.99
2022-11-09T13:20:55.994Z,65.77
2022-11-09T13:24:03.386Z,65.19
2022-11-09T13:27:01.305Z,65.55
2022-11-09T13:29:56.263Z,65.21
2022-11-09T13:33:24.717Z,64.95
2022-11-09T13:36:17.610Z,65.37
2022-11-09T13:39:33.199Z,66.02
2022-11-09T13:42:27.746Z,66.79
2022-11-09T13:45:33.911Z,66.82
2022-11-09T13:48:53.087Z,66.35
2022-11-09T13:51:46.208Z,65.45
2022-11-09T13:54:34.448Z,65.95
2022-11-09T13:57:23.298Z,66.56
2022-11-09T14:00:19.562Z,66.38
2022-11-09T14:03:18.786Z,66.98
2022-11-09T14:06:06.796Z,66.31
2022-11-09T14:08:53.410Z,66.29
2022-11-09T14:11:54.228Z,66.18
2022-11-09T14:15:02.706Z,66.21
2022-11-09T14:18:00.266Z,66.29
2022-11-09T14:20:54.340Z,66.59
2022-11-09T14:23:42.527Z,66.52
2022-11-09T14:26:31.300Z,66.63
2022-11-09T14:29:22.387Z,66.91
2022-11-09T14:32:24.788Z,67.29
2022-11-09T14:35:12.569Z,67.26
2022-11-09T14:38:03.287Z,67.86
2022-11-09T14:40:54.641Z,67.93
2022-11-09T14:43:44.923Z,67.83
2022-11-09T14:46:32.584Z,67.92
2022-11-09T14:49:18.919Z,67.95
2022-11-09T14:52:06.250Z,67.67
2022-11-09T14:54:53.615Z,68.12
2022-11-09T14:57:41.955Z,68.02
2022-11-09T15:00:31.360Z,67.98
2022-11-09T15:03:24.251Z,68.76
2022-11-09T15:06:12.423Z,68.62
2022-11-09T15:09:01.024Z,69.12
2022-11-09T15:11:48.133Z,69.08
2022-11-09T15:14:36.394Z,69.85
2022-11-09T15:17:27.096Z,69.67
2022-11-09T15:20:31.242Z,69.87
2022-11-09T15:23:37.664Z,70.32
2022-11-09T15:26:29.892Z,70.13
2022-11-09T15:29:36.438Z,70.81
2022-11-09T15:32:25.194Z,70.75
2022-11-09T15:35:18.333Z,70.60
2022-11-09T15:38:05.204Z,70.69
2022-11-09T15:40:51.305Z,70.77
2022-11-09T15:43:37.534Z,70.61
2022-11-09T15:46:27.379Z,71.36
2022-11-09T15:49:20.356Z,71.73
2022-11-09T15:52:32.800Z,72.11
2022-11-09T15:55:22.554Z,72.47
2022-11-09T15:58:14.262Z,72.55
2022-11-09T16:01:00.329Z,72.96
2022-11-09T16:03:46.488Z,73.64
2022-11-09T16:06:35.873Z,73.49
2022-11-09T16:09:22.207Z,73.57
2022-11-09T16:12:11.667Z,74.14
2022-11-09T16:14:57.544Z,74.25
2022-11-09T16:17:43.545Z,74.29
2022-11-09T16:20:30.417Z,74.56
2022-11-09T16:23:18.664Z,74.76
2022-11-09T16:26:06.632Z,74.94
2022-11-09T16:28:52.960Z,74.91
2022-11-09T16:31:54.873Z,74.73
2022-11-09T16:34:40.853Z,75.16
2022-11-09T16:37:30.101Z,75.56
2022-11-09T16:40:19.225Z,75.30
2022-11-09T16:43:05.394Z,75.48
2022-11-09T16:45:51.429Z,75.83
2022-11-09T16:48:39.658Z,75.85
2022-11-09T16:51:25.929Z,75.98
2022-11-09T16:54:12.359Z,75.96
2022-11-09T16:57:00.614Z,75.57
2022-11-09T16:59:47.200Z,75.59
2022-11-09T17:02:34.272Z,75.78
2022-11-09T17:05:21.810Z,75.59
2022-11-09T17:08:09.260Z,75.86
2022-11-09T17:10:55.358Z,76.17
2022-11-09T17:13:43.296Z,76.33
2022-11-09T17:16:30.680Z,76.91
2022-11-09T17:19:16.597Z,76.93
2022-11-09T17:22:03.850Z,77.71
2022-11-09T17:24:50.145Z,77.97
2022-11-09T17:27:38.526Z,77.90
2022-11-09T17:30:26.055Z,78.31
2022-11-09T17:33:13.631Z,78.20
2022-11-09T17:36:01.176Z,78.87
2022-11-09T17:38:47.453Z,78.94
2022-11-09T17:41:38.701Z,78.68
2022-11-09T17:44:27.606Z,78.74
2022-11-09T17:47:16.318Z,79.26
2022-11-09T17:50:02.576Z,79.38
2022-11-09T17:52:48.877Z,79.50
2022-11-09T17:55:37.979Z,79.64
2022-11-09T17:58:27.172Z,79.62
2022-11-09T18:01:16.197Z,80.19
2022-11-09T18:04:06.676Z,80.29
2022-11-09T18:06:53.027Z,80.26
2022-11-09T18:09:42.089Z,80.37
2022-11-09T18:12:28.951Z,80.60
2022-11-09T18:15:15.512Z,80.98
2022-11-09T18:18:02.273Z,81.13
2022-11-09T18:20:49.924Z,81.01
2022-11-09T18:23:37.023Z,81.58
2022-11-09T18:26:23.309Z,81.53
2022-11-09T18:29:10.237Z,81.91
2022-11-09T18:31:56.491Z,82.08
2022-11-09T18:34:43.232Z,82.36
2022-11-09T18:37:34.573Z,83.13
2022-11-09T18:40:20.726Z,83.03
2022-11-09T18:43:06.760Z,83.11
2022-11-09T18:45:57.482Z,83.40
2022-11-09T18:48:43.947Z,83.93
2022-11-09T18:51:30.395Z,84.06
2022-11-09T18:54:19.111Z,84.02
2022-11-09T18:57:05.839Z,84.33
2022-11-09T18:59:52.629Z,84.91
2022-11-09T19:02:39.556Z,85.32
2022-11-09T19:05:26.152Z,85.71
2022-11-09T19:08:13.465Z,85.68
2022-11-09T19:11:06.296Z,85.97
2022-11-09T19:13:54.590Z,85.81
2022-11-09T19:16:40.812Z,86.34
2022-11-09T19:19:27.199Z,86.04
2022-11-09T19:22:17.575Z,86.49
2022-11-09T19:25:05.222Z,86.28
2022-11-09T19:27:53.332Z,86.36
2022-11-09T19:30:39.771Z,86.36
2022-11-09T19:33:26.282Z,86.39
2022-11-09T19:36:29.673Z,86.73
2022-11-09T19:39:17.563Z,86.62
2022-11-09T19:42:03.978Z,86.44
2022-11-09T19:44:56.212Z,86.53
2022-11-09T19:47:43.171Z,86.59
2022-11-09T19:50:29.170Z,86.64
2022-11-09T19:53:19.229Z,86.58
2022-11-09T19:56:08.481Z,86.66
2022-11-09T19:58:56.461Z,86.26
2022-11-09T20:01:44.340Z,86.17
2022-11-09T20:04:33.048Z,86.05
2022-11-09T20:07:20.602Z,86.42
2022-11-09T20:10:09.226Z,86.35
2022-11-09T20:12:56.572Z,86.43
2022-11-09T20:15:43.264Z,86.71
2022-11-09T20:18:30.777Z,86.91
2022-11-09T20:21:16.783Z,86.66
2022-11-09T20:24:03.120Z,87.04
2022-11-09T20:26:49.580Z,87.17
2022-11-09T20:29:35.537Z,87.74
2022-11-09T20:32:25.228Z,87.32
2022-11-09T20:35:16.487Z,87.67
2022-11-09T20:38:03.050Z,87.79
2022-11-09T20:40:54.377Z,88.38
2022-11-09T20:43:41.233Z,87.99
2022-11-09T20:46:32.670Z,88.15
2022-11-09T20:49:22.205Z,88.31
2022-11-09T20:52:12.948Z,88.62
2022-11-09T20:54:59.237Z,89.01
2022-11-09T20:57:45.314Z,89.12
2022-11-09T21:00:38.235Z,89.08
2022-11-09T21:03:25.514Z,89.03
2022-11-09T21:06:14.355Z,89.33
2022-11-09T21:09:04.557Z,89.36
2022-11-09T21:12:08.917Z,89.71
2022-11-09T21:14:59.284Z,89.89
2022-11-09T21:17:51.333Z,89.81
2022-11-09T21:20:37.822Z,90.04
2022-11-09T21:23:41.472Z,90.30
2022-11-09T21:26:47.878Z,90.25
2022-11-09T21:29:52.234Z,90.55
2022-11-09T21:32:40.309Z,91.06
2022-11-09T21:35:26.365Z,91.10
2022-11-09T21:38:12.618Z,90.92
2022-11-09T21:41:21.303Z,91.38
2022-11-09T21:44:10.585Z,91.46
2022-11-09T21:46:57.025Z,91.81
2022-11-09T21:49:43.649Z,91.51
2022-11-09T21:52:30.409Z,91.96
2022-11-09T21:55:17.749Z,91.48
2022-11-09T21:58:04.426Z,91.66
2022-11-09T22:00:52.242Z,91.73
2022-11-09T22:03:39.664Z,92.09
2022-11-09T22:06:28.446Z,92.46
2022-11-09T22:09:16.799Z,92.19
2022-11-09T22:12:22.236Z,92.67
2022-11-09T22:15:28.107Z,92.88
2022-11-09T22:18:36.316Z,92.83
2022-11-09T22:21:23.737Z,93.22
2022-11-09T22:24:10.816Z,93.65
2022-11-09T22:26:57.856Z,93.47
2022-11-09T22:29:43.897Z,93.48
2022-11-09T22:32:31.630Z,93.64
2022-11-09T22:35:19.383Z,93.60
2022-11-09T22:38:06.791Z,93.85
2022-11-09T22:40:54.697Z,94.18
2022-11-09T22:43:42.368Z,94.13
2022-11-09T22:46:29.070Z,93.94
2022-11-09T22:49:16.221Z,94.07
2022-11-09T22:52:03.728Z,93.88
2022-11-09T22:54:50.430Z,94.16
2022-11-09T22:57:37.853Z,94.06
2022-11-09T23:00:28.250Z,93.95
2022-11-09T23:03:15.421Z,94.32
2022-11-09T23:06:03.227Z,94.41
2022-11-09T23:08:50.703Z,94.37
2022-11-09T23:11:36.636Z,95.02
2022-11-09T23:14:43.133Z,95.14
2022-11-09T23:17:47.147Z,95.58
2022-11-09T23:20:35.825Z,95.62
2022-11-09T23:23:22.394Z,95.97
2022-11-09T23:26:11.136Z,95.89
2022-11-09T23:28:57.466Z,96.12
2022-11-09T23:31:43.689Z,96.23
2022-11-09T23:34:29.710Z,96.54
2022-11-09T23:37:16.607Z,96.60
2022-11-09T23:40:03.045Z,96.91
2022-11-09T23:42:52.011Z,96.98
2022-11-09T23:45:41.350Z,97.48
2022-11-09T23:48:27.686Z,97.59
2022-11-09T23:51:15.321Z,97.52
2022-11-09T23:54:01.349Z,97.73
2022-11-09T23:59:59.916Z,98.16
